createdAt,value
2018-02-15T00:00:57.942Z,9.50
2018-02-15T00:01:57.367Z,9.20
2018-02-15T00:02:57.893Z,7.20
2018-02-15T00:03:57.359Z,9.40
2018-02-15T00:04:58.797Z,9.30
2018-02-15T00:05:58.020Z,10.50
2018-02-15T00:06:57.661Z,10.00
2018-02-15T00:07:57.108Z,10.30
2018-02-15T00:08:57.429Z,9.90
2018-02-15T00:09:57.709Z,9.90
2018-02-15T00:10:57.148Z,9.10
2018-02-15T00:11:57.832Z,9.60
2018-02-15T00:13:18.876Z,8.00
2018-02-15T00:14:19.317Z,10.70
2018-02-15T00:15:18.654Z,8.90
2018-02-15T00:16:19.416Z,11.70
2018-02-15T00:17:19.028Z,8.90
2018-02-15T00:18:18.829Z,9.60
2018-02-15T00:19:19.541Z,10.40
2018-02-15T00:20:19.446Z,11.80
2018-02-15T00:21:19.099Z,9.70
2018-02-15T00:22:19.728Z,9.70
2018-02-15T00:23:19.379Z,8.50
2018-02-15T00:24:40.243Z,9.70
2018-02-15T00:25:40.962Z,13.20
2018-02-15T00:26:41.638Z,10.10
2018-02-15T00:27:40.839Z,10.10
2018-02-15T00:28:40.218Z,8.50
2018-02-15T00:29:41.080Z,10.40
2018-02-15T00:30:40.537Z,9.10
2018-02-15T00:31:41.303Z,9.30
2018-02-15T00:32:41.239Z,11.70
2018-02-15T00:33:40.657Z,10.30
2018-02-15T00:34:40.859Z,8.60
2018-02-15T00:35:41.237Z,10.80
2018-02-15T00:36:40.968Z,7.70
2018-02-15T00:37:40.536Z,8.20
2018-02-15T00:38:41.176Z,9.00
2018-02-15T00:39:40.863Z,10.40
2018-02-15T00:40:41.192Z,10.20
2018-02-15T00:41:41.077Z,10.80
2018-02-15T00:42:40.444Z,8.00
2018-02-15T00:43:41.180Z,10.00
2018-02-15T00:44:40.517Z,9.80
2018-02-15T00:45:41.064Z,12.80
2018-02-15T00:46:40.470Z,10.30
2018-02-15T00:47:41.247Z,10.00
2018-02-15T00:48:40.569Z,8.90
2018-02-15T00:49:41.231Z,9.20
2018-02-15T00:50:40.912Z,9.40
2018-02-15T00:51:40.868Z,12.70
2018-02-15T00:52:40.339Z,9.60
2018-02-15T00:53:40.859Z,8.80
2018-02-15T00:54:40.590Z,9.30
2018-02-15T00:55:40.909Z,8.70
2018-02-15T00:56:41.241Z,11.10
2018-02-15T00:57:40.652Z,9.70
2018-02-15T00:58:40.937Z,11.80
2018-02-15T00:59:40.354Z,9.70
2018-02-15T01:00:40.985Z,10.00
2018-02-15T01:01:40.798Z,10.70
2018-02-15T01:02:40.319Z,9.90
2018-02-15T01:03:40.593Z,8.70
2018-02-15T01:04:40.902Z,8.80
2018-02-15T01:05:41.291Z,11.10
2018-02-15T01:06:40.600Z,8.30
2018-02-15T01:07:41.262Z,10.30
2018-02-15T01:08:40.759Z,8.40
2018-02-15T01:09:40.345Z,9.50
2018-02-15T01:10:40.689Z,10.90
2018-02-15T01:11:41.102Z,12.30
2018-02-15T01:12:40.674Z,9.60
2018-02-15T01:13:41.466Z,9.00
2018-02-15T01:14:40.985Z,9.00
2018-02-15T01:15:40.551Z,9.70
2018-02-15T01:16:41.167Z,9.80
2018-02-15T01:17:40.822Z,11.30
2018-02-15T01:18:41.586Z,10.60
2018-02-15T01:19:41.269Z,9.10
2018-02-15T01:20:40.729Z,8.20
2018-02-15T01:21:41.423Z,9.70
2018-02-15T01:22:41.143Z,9.90
2018-02-15T01:23:40.306Z,11.30
2018-02-15T01:24:40.863Z,11.80
2018-02-15T01:25:41.919Z,11.90
2018-02-15T01:27:01.876Z,11.50
2018-02-15T01:28:02.383Z,9.80
2018-02-15T01:29:01.584Z,9.70
2018-02-15T01:30:23.625Z,11.30
2018-02-15T01:31:23.818Z,9.30
2018-02-15T01:32:24.221Z,10.60
2018-02-15T01:33:23.796Z,10.20
2018-02-15T01:34:24.445Z,9.20
2018-02-15T01:35:23.898Z,9.30
2018-02-15T01:36:23.244Z,9.60
2018-02-15T01:37:23.892Z,11.10
2018-02-15T01:38:24.207Z,10.20
2018-02-15T01:39:23.994Z,10.40
2018-02-15T01:40:24.337Z,11.00
2018-02-15T01:41:24.188Z,10.70
2018-02-15T01:42:24.370Z,10.20
2018-02-15T01:43:24.066Z,9.60
2018-02-15T01:44:23.472Z,10.30
2018-02-15T01:45:24.008Z,9.00
2018-02-15T01:46:24.630Z,10.50
2018-02-15T01:47:23.954Z,10.50
2018-02-15T01:48:45.760Z,10.90
2018-02-15T01:49:46.175Z,10.00
2018-02-15T01:50:46.947Z,10.30
2018-02-15T01:51:46.467Z,11.20
2018-02-15T01:52:46.174Z,9.30
2018-02-15T01:53:46.433Z,13.00
2018-02-15T01:54:46.063Z,12.00
2018-02-15T01:55:46.283Z,11.60
2018-02-15T01:56:45.688Z,8.80
2018-02-15T01:57:46.326Z,7.70
2018-02-15T01:58:46.664Z,9.80
2018-02-15T01:59:46.551Z,12.20
2018-02-15T02:00:46.012Z,12.70
2018-02-15T02:02:08.319Z,9.60
2018-02-15T02:03:09.061Z,9.80
2018-02-15T02:04:08.722Z,9.90
2018-02-15T02:05:08.220Z,10.80
2018-02-15T02:06:08.972Z,8.70
2018-02-15T02:07:09.094Z,11.70
2018-02-15T02:08:08.642Z,14.00
2018-02-15T02:09:08.121Z,10.20
2018-02-15T02:10:30.504Z,10.00
2018-02-15T02:11:30.680Z,11.00
2018-02-15T02:12:30.092Z,11.50
2018-02-15T02:13:30.414Z,9.40
2018-02-15T02:14:31.077Z,11.10
2018-02-15T02:15:30.430Z,12.80
2018-02-15T02:16:30.937Z,9.40
2018-02-15T02:17:30.351Z,8.70
2018-02-15T02:18:31.098Z,10.90
2018-02-15T02:19:30.488Z,13.10
2018-02-15T02:20:31.049Z,9.30
2018-02-15T02:21:30.357Z,9.10
2018-02-15T02:22:31.118Z,9.10
2018-02-15T02:23:51.819Z,10.40
2018-02-15T02:24:52.268Z,9.80
2018-02-15T02:25:52.118Z,9.20
2018-02-15T02:26:52.240Z,9.10
2018-02-15T02:27:52.106Z,8.50
2018-02-15T02:28:52.341Z,8.30
2018-02-15T02:29:51.759Z,9.20
2018-02-15T02:30:52.429Z,11.20
2018-02-15T02:32:13.100Z,9.30
2018-02-15T02:33:13.660Z,10.40
2018-02-15T02:34:14.278Z,9.20
2018-02-15T02:36:15.272Z,10.80
2018-02-15T02:37:15.528Z,10.80
2018-02-15T02:38:16.445Z,10.40
2018-02-15T02:39:15.871Z,8.60
2018-02-15T02:40:16.094Z,8.50
2018-02-15T02:41:15.732Z,8.30
2018-02-15T02:42:16.211Z,9.50
2018-02-15T02:43:15.758Z,10.30
2018-02-15T02:44:16.055Z,10.80
2018-02-15T02:45:15.651Z,9.80
2018-02-15T02:46:37.277Z,10.30
2018-02-15T02:47:37.805Z,9.20
2018-02-15T02:48:38.186Z,9.00
2018-02-15T02:49:37.285Z,9.60
2018-02-15T02:50:37.540Z,8.30
2018-02-15T02:51:38.192Z,10.30
2018-02-15T02:52:37.659Z,9.50
2018-02-15T02:53:38.232Z,8.50
2018-02-15T02:54:37.550Z,9.20
2018-02-15T02:55:37.650Z,8.90
2018-02-15T02:56:36.983Z,8.10
2018-02-15T02:57:37.077Z,9.90
2018-02-15T02:58:37.676Z,9.60
2018-02-15T02:59:38.163Z,9.10
2018-02-15T03:00:37.418Z,10.80
2018-02-15T03:01:38.183Z,7.80
2018-02-15T03:02:37.961Z,10.70
2018-02-15T03:03:37.500Z,9.40
2018-02-15T03:04:37.889Z,13.90
2018-02-15T03:05:37.112Z,9.50
2018-02-15T03:06:37.531Z,10.00
2018-02-15T03:07:38.166Z,8.70
2018-02-15T03:08:37.509Z,8.00
2018-02-15T03:09:38.103Z,9.60
2018-02-15T03:10:37.396Z,9.30
2018-02-15T03:11:37.657Z,9.90
2018-02-15T03:12:37.210Z,9.10
2018-02-15T03:13:37.748Z,9.90
2018-02-15T03:14:58.271Z,8.20
2018-02-15T03:15:58.530Z,8.50
2018-02-15T03:16:58.805Z,9.70
2018-02-15T03:17:58.965Z,9.60
2018-02-15T03:18:58.344Z,10.20
2018-02-15T03:19:59.052Z,11.20
2018-02-15T03:20:58.339Z,11.90
2018-02-15T03:21:58.481Z,9.20
2018-02-15T03:22:58.637Z,7.70
2018-02-15T03:23:58.872Z,9.50
2018-02-15T03:25:20.415Z,10.00
2018-02-15T03:26:21.038Z,10.40
2018-02-15T03:27:20.684Z,9.90
2018-02-15T03:28:20.994Z,9.20
2018-02-15T03:29:42.912Z,8.50
2018-02-15T03:30:43.589Z,8.60
2018-02-15T03:31:42.974Z,11.40
2018-02-15T03:32:43.665Z,8.90
2018-02-15T03:33:42.745Z,9.70
2018-02-15T03:34:43.038Z,10.70
2018-02-15T03:35:43.799Z,8.20
2018-02-15T03:36:43.407Z,9.80
2018-02-15T03:37:42.764Z,10.10
2018-02-15T03:39:03.967Z,8.80
2018-02-15T03:40:04.289Z,8.80
2018-02-15T03:41:04.453Z,9.90
2018-02-15T03:42:04.862Z,9.10
2018-02-15T03:43:04.390Z,10.30
2018-02-15T03:44:04.581Z,10.00
2018-02-15T03:45:05.276Z,10.50
2018-02-15T03:46:04.901Z,10.60
2018-02-15T03:47:04.285Z,9.50
2018-02-15T03:48:05.193Z,8.60
2018-02-15T03:49:04.676Z,9.30
2018-02-15T03:50:03.965Z,9.70
2018-02-15T03:51:04.563Z,7.90
2018-02-15T03:52:04.275Z,10.40
2018-02-15T03:53:05.032Z,8.70
2018-02-15T03:54:04.501Z,12.40
2018-02-15T03:55:03.919Z,10.80
2018-02-15T03:56:04.742Z,10.00
2018-02-15T03:57:03.905Z,10.20
2018-02-15T03:58:04.496Z,11.60
2018-02-15T03:59:04.812Z,11.10
2018-02-15T04:00:04.566Z,9.40
2018-02-15T04:01:04.890Z,10.70
2018-02-15T04:02:04.147Z,10.70
2018-02-15T04:03:04.385Z,8.50
2018-02-15T04:04:05.081Z,9.70
2018-02-15T04:05:04.350Z,9.90
2018-02-15T04:06:04.607Z,8.60
2018-02-15T04:07:04.281Z,10.70
2018-02-15T04:08:04.563Z,11.30
2018-02-15T04:09:03.898Z,8.30
2018-02-15T04:10:04.785Z,13.00
2018-02-15T04:11:04.436Z,10.60
2018-02-15T04:12:04.620Z,10.30
2018-02-15T04:13:04.265Z,8.90
2018-02-15T04:14:04.531Z,9.40
2018-02-15T04:15:05.098Z,9.20
2018-02-15T04:16:04.441Z,9.30
2018-02-15T04:17:04.989Z,8.30
2018-02-15T04:18:04.349Z,11.00
2018-02-15T04:19:04.622Z,9.00
2018-02-15T04:20:04.527Z,11.00
2018-02-15T04:21:05.060Z,10.80
2018-02-15T04:22:04.442Z,12.40
2018-02-15T04:23:04.955Z,10.30
2018-02-15T04:24:04.620Z,8.20
2018-02-15T04:25:03.990Z,10.50
2018-02-15T04:26:04.394Z,8.60
2018-02-15T04:27:05.265Z,8.30
2018-02-15T04:28:04.469Z,8.10
2018-02-15T04:29:05.202Z,8.50
2018-02-15T04:30:04.664Z,10.40
2018-02-15T04:31:04.350Z,10.70
2018-02-15T04:32:04.939Z,9.40
2018-02-15T04:33:04.184Z,10.10
2018-02-15T04:34:05.049Z,10.10
2018-02-15T04:35:04.742Z,9.00
2018-02-15T04:36:03.878Z,9.30
2018-02-15T04:37:04.241Z,10.70
2018-02-15T04:38:04.866Z,10.10
2018-02-15T04:39:04.361Z,9.70
2018-02-15T04:40:05.023Z,10.20
2018-02-15T04:41:04.542Z,9.20
2018-02-15T04:42:04.351Z,10.40
2018-02-15T04:43:05.158Z,9.10
2018-02-15T04:44:04.996Z,9.30
2018-02-15T04:45:04.646Z,8.70
2018-02-15T04:46:04.055Z,10.30
2018-02-15T04:47:04.480Z,10.50
2018-02-15T04:48:04.734Z,9.40
2018-02-15T04:49:04.031Z,9.40
2018-02-15T04:50:04.608Z,9.00
2018-02-15T04:51:05.249Z,11.30
2018-02-15T04:52:25.912Z,14.30
2018-02-15T04:53:26.814Z,12.60
2018-02-15T04:54:26.517Z,10.80
2018-02-15T04:55:26.879Z,10.10
2018-02-15T04:56:26.483Z,10.00
2018-02-15T04:57:26.928Z,9.50
2018-02-15T04:58:26.175Z,10.00
2018-02-15T04:59:48.061Z,10.80
2018-02-15T05:00:48.533Z,8.30
2018-02-15T05:01:48.267Z,10.40
2018-02-15T05:02:47.725Z,10.80
2018-02-15T05:03:48.118Z,10.50
2018-02-15T05:04:48.272Z,10.80
2018-02-15T05:05:47.746Z,14.60
2018-02-15T05:06:48.602Z,11.20
2018-02-15T05:07:47.977Z,13.70
2018-02-15T05:08:48.761Z,17.10
2018-02-15T05:09:48.375Z,12.30
2018-02-15T05:10:48.478Z,14.90
2018-02-15T05:11:47.726Z,15.40
2018-02-15T05:12:48.243Z,15.10
2018-02-15T05:13:48.750Z,17.70
2018-02-15T05:14:48.286Z,12.60
2018-02-15T05:16:10.032Z,15.00
2018-02-15T05:17:52.741Z,15.50
2018-02-15T05:18:53.469Z,12.90
2018-02-15T05:19:52.664Z,11.10
2018-02-15T05:20:53.094Z,12.80
2018-02-15T05:21:52.702Z,12.10
2018-02-15T05:22:53.034Z,13.10
2018-02-15T05:23:53.614Z,16.60
2018-02-15T05:24:53.369Z,8.60
2018-02-15T05:25:52.672Z,8.90
2018-02-15T05:26:53.062Z,11.30
2018-02-15T05:27:53.591Z,11.20
2018-02-15T05:28:53.304Z,9.30
2018-02-15T05:29:52.682Z,11.20
2018-02-15T05:30:53.128Z,11.30
2018-02-15T05:31:52.915Z,11.00
2018-02-15T05:32:53.483Z,10.10
2018-02-15T05:33:52.993Z,8.80
2018-02-15T05:34:52.436Z,11.30
2018-02-15T05:35:53.242Z,10.90
2018-02-15T05:36:52.749Z,9.20
2018-02-15T05:37:53.106Z,15.50
2018-02-15T05:38:52.870Z,9.60
2018-02-15T05:39:53.684Z,9.30
2018-02-15T05:40:53.051Z,10.60
2018-02-15T05:41:53.373Z,8.90
2018-02-15T05:43:14.559Z,11.90
2018-02-15T05:44:15.288Z,7.20
2018-02-15T05:45:15.013Z,13.50
2018-02-15T05:46:14.371Z,10.00
2018-02-15T05:47:14.628Z,8.10
2018-02-15T05:48:15.061Z,9.90
2018-02-15T05:49:14.397Z,11.20
2018-02-15T05:50:15.190Z,8.50
2018-02-15T05:51:36.245Z,9.80
2018-02-15T05:52:37.294Z,7.90
2018-02-15T05:53:36.943Z,8.20
2018-02-15T05:54:36.342Z,9.70
2018-02-15T05:55:36.944Z,8.20
2018-02-15T05:56:36.457Z,8.90
2018-02-15T05:57:36.968Z,8.30
2018-02-15T05:58:36.721Z,11.90
2018-02-15T05:59:36.482Z,8.60
2018-02-15T06:00:37.349Z,10.90
2018-02-15T06:01:42.365Z,10.30
2018-02-15T06:02:36.898Z,7.80
2018-02-15T06:03:58.391Z,10.90
2018-02-15T06:04:59.325Z,10.10
2018-02-15T06:06:20.618Z,9.00
2018-02-15T06:07:21.270Z,8.40
2018-02-15T06:08:42.349Z,11.30
2018-02-15T06:09:43.527Z,10.50
2018-02-15T06:10:43.433Z,10.00
2018-02-15T06:11:43.224Z,8.30
2018-02-15T06:12:43.576Z,8.10
2018-02-15T06:13:43.082Z,9.30
2018-02-15T06:14:44.805Z,11.40
2018-02-15T06:15:43.731Z,9.70
2018-02-15T06:16:43.568Z,13.60
2018-02-15T06:17:43.463Z,11.20
2018-02-15T06:18:43.394Z,11.30
2018-02-15T06:19:43.054Z,11.70
2018-02-15T06:20:42.507Z,11.00
2018-02-15T06:21:43.405Z,13.10
2018-02-15T06:22:43.197Z,13.10
2018-02-15T06:23:42.590Z,10.80
2018-02-15T06:25:04.726Z,10.60
2018-02-15T06:26:05.312Z,11.50
2018-02-15T06:27:05.325Z,14.50
2018-02-15T06:28:05.369Z,13.10
2018-02-15T06:29:04.875Z,13.70
2018-02-15T06:30:05.722Z,14.80
2018-02-15T06:31:05.217Z,12.40
2018-02-15T06:32:04.993Z,16.70
2018-02-15T06:33:05.680Z,14.10
2018-02-15T06:34:05.449Z,13.90
2018-02-15T06:35:04.820Z,14.30
2018-02-15T06:36:05.120Z,18.30
2018-02-15T06:37:05.098Z,15.30
2018-02-15T06:38:27.520Z,14.50
2018-02-15T06:39:27.781Z,17.90
2018-02-15T06:40:27.554Z,16.40
2018-02-15T06:41:27.291Z,15.90
2018-02-15T06:42:27.656Z,14.10
2018-02-15T06:43:27.009Z,14.80
2018-02-15T06:44:27.367Z,16.60
2018-02-15T06:45:28.278Z,12.70
2018-02-15T06:46:27.981Z,15.10
2018-02-15T06:47:28.542Z,13.80
2018-02-15T06:48:28.531Z,13.20
2018-02-15T06:49:27.377Z,15.80
2018-02-15T06:50:27.918Z,15.00
2018-02-15T06:51:27.110Z,14.80
2018-02-15T06:52:49.117Z,13.70
2018-02-15T06:53:49.943Z,15.40
2018-02-15T06:54:49.740Z,14.50
2018-02-15T06:55:49.469Z,14.40
2018-02-15T06:56:50.281Z,13.00
2018-02-15T06:57:49.954Z,12.80
2018-02-15T06:58:49.404Z,15.00
2018-02-15T06:59:49.851Z,12.70
2018-02-15T07:00:49.515Z,13.30
2018-02-15T07:01:50.381Z,13.20
2018-02-15T07:02:49.998Z,13.50
2018-02-15T07:03:49.782Z,15.00
2018-02-15T07:04:49.324Z,14.20
2018-02-15T07:05:50.085Z,16.30
2018-02-15T07:07:11.087Z,14.30
2018-02-15T07:08:11.643Z,15.00
2018-02-15T07:09:11.165Z,19.40
2018-02-15T07:10:11.497Z,14.30
2018-02-15T07:11:11.073Z,16.80
2018-02-15T07:12:11.686Z,15.00
2018-02-15T07:13:11.564Z,15.90
2018-02-15T07:14:11.526Z,19.10
2018-02-15T07:15:11.036Z,14.80
2018-02-15T07:16:11.513Z,16.00
2018-02-15T07:17:11.208Z,14.20
2018-02-15T07:18:11.972Z,17.10
2018-02-15T07:19:11.876Z,19.90
2018-02-15T07:20:11.673Z,16.40
2018-02-15T07:21:10.960Z,17.80
2018-02-15T07:22:11.459Z,16.60
2018-02-15T07:23:10.947Z,17.00
2018-02-15T07:24:32.714Z,19.00
2018-02-15T07:25:33.179Z,17.00
2018-02-15T07:26:33.691Z,18.20
2018-02-15T07:27:33.463Z,19.50
2018-02-15T07:28:33.203Z,19.00
2018-02-15T07:29:33.842Z,18.50
2018-02-15T07:30:33.448Z,22.00
2018-02-15T07:31:33.204Z,18.90
2018-02-15T07:32:34.145Z,20.40
2018-02-15T07:33:33.858Z,18.10
2018-02-15T07:34:33.313Z,22.30
2018-02-15T07:35:33.170Z,19.30
2018-02-15T07:36:34.058Z,18.90
2018-02-15T07:37:33.510Z,16.10
2018-02-15T07:38:33.094Z,17.10
2018-02-15T07:39:33.502Z,20.00
2018-02-15T07:40:33.067Z,13.90
2018-02-15T07:41:33.531Z,19.00
2018-02-15T07:42:33.304Z,17.70
2018-02-15T07:43:33.734Z,18.80
2018-02-15T07:44:33.367Z,18.80
2018-02-15T07:45:33.811Z,16.80
2018-02-15T07:46:33.292Z,21.80
2018-02-15T07:47:33.844Z,18.60
2018-02-15T07:48:33.851Z,18.10
2018-02-15T07:49:33.459Z,24.50
2018-02-15T07:50:33.404Z,18.60
2018-02-15T07:51:33.704Z,18.30
2018-02-15T07:52:33.126Z,22.80
2018-02-15T07:53:33.577Z,18.60
2018-02-15T07:54:33.341Z,19.90
2018-02-15T07:55:33.181Z,19.60
2018-02-15T07:56:33.908Z,22.00
2018-02-15T07:57:33.822Z,20.00
2018-02-15T07:58:33.242Z,20.20
2018-02-15T07:59:32.896Z,18.00
2018-02-15T08:00:33.149Z,16.70
2018-02-15T08:01:33.455Z,16.40
2018-02-15T08:02:33.218Z,17.20
2018-02-15T08:03:33.834Z,17.60
2018-02-15T08:04:33.695Z,21.50
2018-02-15T08:05:33.132Z,19.20
2018-02-15T08:06:34.004Z,23.50
2018-02-15T08:07:55.254Z,21.30
2018-02-15T08:08:55.771Z,25.10
2018-02-15T08:09:55.263Z,25.00
2018-02-15T08:10:54.920Z,29.80
2018-02-15T08:11:55.741Z,24.80
2018-02-15T08:12:55.622Z,24.70
2018-02-15T08:13:55.418Z,27.10
2018-02-15T08:14:55.267Z,27.30
2018-02-15T08:15:55.821Z,28.80
2018-02-15T08:16:55.136Z,25.00
2018-02-15T08:17:56.559Z,28.40
2018-02-15T08:18:55.405Z,27.30
2018-02-15T08:19:55.194Z,25.10
2018-02-15T08:20:55.541Z,31.80
2018-02-15T08:21:54.998Z,30.00
2018-02-15T08:22:55.951Z,25.40
2018-02-15T08:23:55.887Z,28.80
2018-02-15T08:24:55.270Z,27.00
2018-02-15T08:25:55.183Z,36.20
2018-02-15T08:26:56.063Z,32.40
2018-02-15T08:27:55.988Z,28.10
2018-02-15T08:28:55.927Z,27.60
2018-02-15T08:29:55.652Z,30.90
2018-02-15T08:30:55.410Z,31.60
2018-02-15T08:31:55.118Z,30.20
2018-02-15T08:32:55.342Z,30.00
2018-02-15T08:33:55.970Z,33.40
2018-02-15T08:34:55.657Z,30.40
2018-02-15T08:35:54.991Z,27.70
2018-02-15T08:37:16.555Z,32.90
2018-02-15T08:38:17.133Z,30.10
2018-02-15T08:39:18.132Z,29.30
2018-02-15T08:40:38.668Z,27.90
2018-02-15T08:41:39.140Z,30.50
2018-02-15T08:42:39.578Z,33.60
2018-02-15T08:43:39.333Z,28.80
2018-02-15T08:44:39.596Z,31.50
2018-02-15T08:45:39.008Z,29.70
2018-02-15T08:46:40.064Z,34.90
2018-02-15T08:47:39.679Z,30.80
2018-02-15T08:48:39.556Z,33.20
2018-02-15T08:49:40.131Z,28.60
2018-02-15T08:50:39.641Z,32.60
2018-02-15T08:51:39.438Z,33.20
2018-02-15T08:52:39.349Z,29.70
2018-02-15T08:54:01.148Z,32.40
2018-02-15T08:55:01.283Z,30.60
2018-02-15T08:56:00.974Z,39.40
2018-02-15T08:57:01.402Z,34.20
2018-02-15T08:58:01.073Z,32.20
2018-02-15T08:59:01.164Z,30.50
2018-02-15T09:00:00.921Z,35.20
2018-02-15T09:01:22.742Z,30.80
2018-02-15T09:02:23.037Z,33.10
2018-02-15T09:03:23.734Z,28.00
2018-02-15T09:04:23.668Z,30.70
2018-02-15T09:05:23.755Z,34.40
2018-02-15T09:06:23.247Z,32.00
2018-02-15T09:07:23.249Z,28.80
2018-02-15T09:08:23.108Z,27.50
2018-02-15T09:09:22.950Z,28.20
2018-02-15T09:10:23.353Z,31.00
2018-02-15T09:11:22.807Z,30.20
2018-02-15T09:12:23.435Z,27.80
2018-02-15T09:13:23.324Z,30.50
2018-02-15T09:14:22.999Z,29.50
2018-02-15T09:15:23.717Z,28.50
2018-02-15T09:16:23.123Z,30.00
2018-02-15T09:17:22.606Z,28.80
2018-02-15T09:18:23.770Z,27.50
2018-02-15T09:19:23.540Z,28.80
2018-02-15T09:20:23.316Z,26.50
2018-02-15T09:21:22.749Z,27.80
2018-02-15T09:22:23.365Z,26.90
2018-02-15T09:23:23.000Z,31.20
2018-02-15T09:24:22.595Z,30.30
2018-02-15T09:25:23.080Z,27.30
2018-02-15T09:26:22.800Z,26.60
2018-02-15T09:27:23.142Z,30.90
2018-02-15T09:28:44.299Z,28.80
2018-02-15T09:29:44.861Z,30.10
2018-02-15T09:31:05.744Z,27.20
2018-02-15T09:32:06.146Z,26.80
2018-02-15T09:33:05.525Z,27.40
2018-02-15T09:34:06.303Z,25.30
2018-02-15T09:35:06.348Z,29.00
2018-02-15T09:36:05.881Z,26.10
2018-02-15T09:37:06.317Z,29.30
2018-02-15T09:38:06.397Z,26.70
2018-02-15T09:39:06.026Z,25.00
2018-02-15T09:40:27.417Z,26.10
2018-02-15T09:41:28.419Z,26.60
2018-02-15T09:42:27.573Z,28.00
2018-02-15T09:43:27.149Z,25.30
2018-02-15T09:44:27.609Z,28.20
2018-02-15T09:45:27.903Z,26.90
2018-02-15T09:46:27.483Z,26.50
2018-02-15T09:47:27.496Z,24.20
2018-02-15T09:48:27.894Z,24.40
2018-02-15T09:49:27.452Z,24.80
2018-02-15T09:50:28.385Z,26.70
2018-02-15T09:51:27.722Z,22.20
2018-02-15T09:52:27.057Z,21.40
2018-02-15T09:53:28.130Z,25.70
2018-02-15T09:54:28.085Z,25.90
2018-02-15T09:55:27.905Z,23.90
2018-02-15T09:56:27.721Z,23.80
2018-02-15T09:57:27.720Z,20.40
2018-02-15T09:58:49.284Z,22.90
2018-02-15T09:59:48.884Z,21.80
2018-02-15T10:00:49.890Z,20.50
2018-02-15T10:01:49.654Z,21.50
2018-02-15T10:02:49.569Z,21.50
2018-02-15T10:03:49.159Z,21.50
2018-02-15T10:04:49.566Z,22.90
2018-02-15T10:05:49.036Z,22.90
2018-02-15T10:06:49.967Z,18.60
2018-02-15T10:08:10.618Z,23.00
2018-02-15T10:09:11.218Z,22.30
2018-02-15T10:10:10.705Z,22.10
2018-02-15T10:11:11.401Z,24.80
2018-02-15T10:12:11.324Z,22.80
2018-02-15T10:13:11.176Z,28.60
2018-02-15T10:14:11.628Z,23.60
2018-02-15T10:15:11.215Z,21.60
2018-02-15T10:16:10.774Z,24.60
2018-02-15T10:17:11.293Z,20.30
2018-02-15T10:18:11.334Z,21.00
2018-02-15T10:19:11.315Z,24.90
2018-02-15T10:20:11.300Z,19.60
2018-02-15T10:21:10.907Z,23.10
2018-02-15T10:22:11.459Z,20.30
2018-02-15T10:23:10.957Z,27.70
2018-02-15T10:24:10.825Z,23.60
2018-02-15T10:25:11.728Z,22.10
2018-02-15T10:26:11.605Z,25.40
2018-02-15T10:27:54.480Z,21.10
2018-02-15T10:28:54.862Z,21.20
2018-02-15T10:29:55.252Z,24.30
2018-02-15T10:30:55.082Z,27.40
2018-02-15T10:32:16.968Z,24.60
2018-02-15T10:33:17.672Z,26.30
2018-02-15T10:34:18.295Z,24.90
2018-02-15T10:35:17.736Z,23.00
2018-02-15T10:36:17.309Z,24.10
2018-02-15T10:37:18.255Z,23.40
2018-02-15T10:38:18.088Z,22.00
2018-02-15T10:39:17.975Z,23.70
2018-02-15T10:40:17.888Z,23.30
2018-02-15T10:41:17.685Z,23.20
2018-02-15T10:42:17.478Z,22.00
2018-02-15T10:43:18.079Z,27.90
2018-02-15T10:44:17.808Z,21.10
2018-02-15T10:45:17.135Z,24.70
2018-02-15T10:46:17.907Z,27.40
2018-02-15T10:47:17.216Z,25.80
2018-02-15T10:48:17.987Z,20.80
2018-02-15T10:49:17.575Z,24.00
2018-02-15T10:50:18.087Z,25.90
2018-02-15T10:51:17.572Z,25.60
2018-02-15T10:52:17.412Z,24.80
2018-02-15T10:53:17.804Z,28.40
2018-02-15T10:54:17.628Z,29.60
2018-02-15T10:55:16.952Z,24.70
2018-02-15T10:56:39.115Z,24.30
2018-02-15T10:57:39.687Z,22.20
2018-02-15T10:58:40.441Z,25.10
2018-02-15T10:59:40.518Z,23.50
2018-02-15T11:00:39.963Z,24.50
2018-02-15T11:01:39.631Z,29.60
2018-02-15T11:02:40.415Z,21.50
2018-02-15T11:03:39.777Z,19.10
2018-02-15T11:04:39.624Z,20.50
2018-02-15T11:05:39.213Z,24.30
2018-02-15T11:06:39.635Z,24.60
2018-02-15T11:07:39.278Z,21.30
2018-02-15T11:08:40.197Z,20.40
2018-02-15T11:09:39.757Z,21.60
2018-02-15T11:10:39.248Z,25.80
2018-02-15T11:11:40.090Z,24.10
2018-02-15T11:12:40.075Z,22.30
2018-02-15T11:13:39.562Z,22.80
2018-02-15T11:14:40.299Z,22.40
2018-02-15T11:15:40.207Z,21.30
2018-02-15T11:16:39.923Z,21.70
2018-02-15T11:17:39.299Z,20.40
2018-02-15T11:18:40.258Z,20.90
2018-02-15T11:19:40.673Z,23.10
2018-02-15T11:20:39.495Z,20.80
2018-02-15T11:21:40.164Z,25.60
2018-02-15T11:23:01.462Z,24.80
2018-02-15T11:24:03.376Z,23.50
2018-02-15T11:25:01.159Z,21.60
2018-02-15T11:26:01.452Z,23.40
2018-02-15T11:27:00.881Z,21.20
2018-02-15T11:28:01.752Z,25.20
2018-02-15T11:29:01.581Z,19.20
2018-02-15T11:30:01.057Z,19.50
2018-02-15T11:31:01.912Z,20.80
2018-02-15T11:32:01.867Z,21.90
2018-02-15T11:33:01.354Z,26.20
2018-02-15T11:34:22.317Z,23.30
2018-02-15T11:35:23.385Z,27.10
2018-02-15T11:36:23.049Z,24.60
2018-02-15T11:37:22.993Z,25.10
2018-02-15T11:38:22.859Z,34.30
2018-02-15T11:39:22.728Z,24.40
2018-02-15T11:40:22.917Z,21.60
2018-02-15T11:41:22.411Z,20.10
2018-02-15T11:42:23.385Z,25.50
2018-02-15T11:43:23.166Z,20.10
2018-02-15T11:44:24.594Z,22.40
2018-02-15T11:45:23.182Z,20.80
2018-02-15T11:46:22.934Z,25.10
2018-02-15T11:47:22.800Z,22.70
2018-02-15T11:48:23.285Z,22.70
2018-02-15T11:49:44.701Z,18.80
2018-02-15T11:50:45.086Z,24.30
2018-02-15T11:51:44.925Z,23.10
2018-02-15T11:52:44.821Z,18.10
2018-02-15T11:53:44.810Z,21.40
2018-02-15T11:54:45.299Z,18.60
2018-02-15T11:55:44.847Z,24.30
2018-02-15T11:56:44.376Z,20.50
2018-02-15T11:57:45.018Z,21.40
2018-02-15T11:58:44.919Z,22.10
2018-02-15T11:59:44.515Z,18.10
2018-02-15T12:00:45.362Z,22.30
2018-02-15T12:01:45.303Z,20.30
2018-02-15T12:02:44.790Z,23.00
2018-02-15T12:03:44.484Z,21.10
2018-02-15T12:04:45.320Z,19.50
2018-02-15T12:05:45.287Z,21.60
2018-02-15T12:06:45.393Z,20.00
2018-02-15T12:07:45.332Z,21.20
2018-02-15T12:08:45.173Z,20.50
2018-02-15T12:09:44.681Z,21.20
2018-02-15T12:11:28.064Z,25.80
2018-02-15T12:12:28.619Z,23.80
2018-02-15T12:13:28.614Z,31.10
2018-02-15T12:14:28.543Z,22.80
2018-02-15T12:15:30.039Z,28.00
2018-02-15T12:16:28.888Z,24.00
2018-02-15T12:17:28.706Z,27.60
2018-02-15T12:18:28.638Z,25.80
2018-02-15T12:19:28.466Z,30.30
2018-02-15T12:20:29.268Z,20.40
2018-02-15T12:21:27.796Z,25.60
2018-02-15T12:22:28.729Z,24.40
2018-02-15T12:23:28.588Z,24.40
2018-02-15T12:24:28.408Z,22.20
2018-02-15T12:25:28.360Z,26.20
2018-02-15T12:26:27.936Z,20.00
2018-02-15T12:27:50.523Z,21.90
2018-02-15T12:28:50.920Z,20.50
2018-02-15T12:30:32.962Z,20.50
2018-02-15T12:31:54.874Z,17.80
2018-02-15T12:32:55.214Z,24.40
2018-02-15T12:33:55.894Z,22.30
2018-02-15T12:34:55.484Z,20.70
2018-02-15T12:35:54.992Z,21.50
2018-02-15T12:37:16.600Z,23.10
2018-02-15T12:38:17.439Z,24.30
2018-02-15T12:39:16.815Z,21.30
2018-02-15T12:40:17.245Z,20.30
2018-02-15T12:41:17.892Z,22.50
2018-02-15T12:42:17.520Z,21.60
2018-02-15T12:43:17.290Z,23.20
2018-02-15T12:44:17.275Z,20.40
2018-02-15T12:45:16.962Z,24.30
2018-02-15T12:46:17.895Z,21.60
2018-02-15T12:47:17.668Z,21.10
2018-02-15T12:48:18.310Z,16.60
2018-02-15T12:49:17.312Z,20.30
2018-02-15T12:50:16.865Z,25.30
2018-02-15T12:51:17.428Z,22.30
2018-02-15T12:52:17.002Z,23.40
2018-02-15T12:53:17.841Z,21.70
2018-02-15T12:54:17.494Z,25.50
2018-02-15T12:55:17.304Z,20.70
2018-02-15T12:56:16.959Z,23.60
2018-02-15T12:57:39.321Z,21.30
2018-02-15T12:58:41.093Z,25.00
2018-02-15T12:59:39.827Z,28.00
2018-02-15T13:00:39.986Z,25.90
2018-02-15T13:01:39.895Z,24.00
2018-02-15T13:02:39.873Z,26.10
2018-02-15T13:04:01.074Z,24.10
2018-02-15T13:05:02.099Z,23.80
2018-02-15T13:06:01.717Z,26.50
2018-02-15T13:07:01.288Z,28.00
2018-02-15T13:08:02.106Z,28.90
2018-02-15T13:09:01.687Z,30.60
2018-02-15T13:10:22.579Z,28.30
2018-02-15T13:11:23.154Z,28.00
2018-02-15T13:12:23.087Z,29.30
2018-02-15T13:13:23.966Z,28.00
2018-02-15T13:14:24.490Z,28.00
2018-02-15T13:15:23.094Z,28.00
2018-02-15T13:16:22.561Z,30.60
2018-02-15T13:17:23.061Z,29.30
2018-02-15T13:18:22.578Z,31.50
2018-02-15T13:19:22.874Z,32.80
2018-02-15T13:20:23.325Z,29.60